createdAt,value
2019-05-15T00:01:48.923Z,84.90
2019-05-15T00:04:18.773Z,82.60
2019-05-15T00:06:48.714Z,81.50
2019-05-15T00:09:19.067Z,84.80
2019-05-15T00:11:48.930Z,84.20
2019-05-15T00:14:18.638Z,86.10
2019-05-15T00:16:48.396Z,86.40
2019-05-15T00:19:18.751Z,87.00
2019-05-15T00:21:48.985Z,87.00
2019-05-15T00:24:18.889Z,87.90
2019-05-15T00:26:48.545Z,86.40
2019-05-15T00:29:19.747Z,86.90
2019-05-15T00:31:49.672Z,85.40
2019-05-15T00:34:19.262Z,86.40
2019-05-15T00:36:49.099Z,88.00
2019-05-15T00:39:19.113Z,86.70
2019-05-15T00:41:54.364Z,86.40
2019-05-15T00:44:20.222Z,89.30
2019-05-15T00:46:49.801Z,88.40
2019-05-15T00:49:19.390Z,89.00
2019-05-15T00:51:49.194Z,87.70
2019-05-15T00:54:19.300Z,87.60
2019-05-15T00:56:49.026Z,88.60
2019-05-15T00:59:25.944Z,89.40
2019-05-15T01:01:49.978Z,90.20
2019-05-15T01:04:19.566Z,87.90
2019-05-15T01:06:52.260Z,89.20
2019-05-15T01:09:20.501Z,90.90
2019-05-15T01:11:50.128Z,90.50
2019-05-15T01:14:19.720Z,90.00
2019-05-15T01:16:49.343Z,90.00
2019-05-15T01:19:18.933Z,90.30
2019-05-15T01:21:48.575Z,89.90
2019-05-15T01:24:18.890Z,89.50
2019-05-15T01:26:49.233Z,90.10
2019-05-15T01:29:19.079Z,89.80
2019-05-15T01:31:49.165Z,89.90
2019-05-15T01:34:18.809Z,90.50
2019-05-15T01:36:49.061Z,91.70
2019-05-15T01:39:18.738Z,90.70
2019-05-15T01:41:49.659Z,90.90
2019-05-15T01:44:19.439Z,91.00
2019-05-15T01:46:49.043Z,90.70
2019-05-15T01:49:18.848Z,90.60
2019-05-15T01:51:48.485Z,90.60
2019-05-15T01:54:18.789Z,90.80
2019-05-15T01:56:49.474Z,91.70
2019-05-15T01:59:19.278Z,91.40
2019-05-15T02:01:48.862Z,91.50
2019-05-15T02:04:19.707Z,90.80
2019-05-15T02:06:49.520Z,91.10
2019-05-15T02:09:19.107Z,90.90
2019-05-15T02:11:49.027Z,91.20
2019-05-15T02:14:19.119Z,91.20
2019-05-15T02:16:48.956Z,90.30
2019-05-15T02:19:19.371Z,90.30
2019-05-15T02:21:49.147Z,89.50
2019-05-15T02:24:19.129Z,90.00
2019-05-15T02:26:48.789Z,90.50
2019-05-15T02:29:24.702Z,91.10
2019-05-15T02:31:50.445Z,91.30
2019-05-15T02:34:20.234Z,90.20
2019-05-15T02:36:49.815Z,90.20
2019-05-15T02:39:19.513Z,90.60
2019-05-15T02:41:49.548Z,90.90
2019-05-15T02:44:20.134Z,90.90
2019-05-15T02:46:50.277Z,90.40
2019-05-15T02:49:20.024Z,91.00
2019-05-15T02:51:49.786Z,91.30
2019-05-15T02:54:19.795Z,91.50
2019-05-15T02:56:49.815Z,90.90
2019-05-15T02:59:19.787Z,89.80
2019-05-15T03:01:49.748Z,90.30
2019-05-15T03:04:20.068Z,90.50
2019-05-15T03:06:50.009Z,90.50
2019-05-15T03:09:19.730Z,91.30
2019-05-15T03:11:49.819Z,91.20
2019-05-15T03:14:21.499Z,90.60
2019-05-15T03:16:50.887Z,90.60
2019-05-15T03:19:20.555Z,91.20
2019-05-15T03:21:50.307Z,90.20
2019-05-15T03:24:20.444Z,90.40
2019-05-15T03:26:50.176Z,90.80
2019-05-15T03:29:21.202Z,90.60
2019-05-15T03:32:06.441Z,90.60
2019-05-15T03:34:30.895Z,90.80
2019-05-15T03:36:54.255Z,90.50
2019-05-15T03:39:23.910Z,90.70
2019-05-15T03:41:53.580Z,90.40
2019-05-15T03:44:23.289Z,90.80
2019-05-15T03:46:53.175Z,91.10
2019-05-15T03:49:22.834Z,91.70
2019-05-15T03:51:52.554Z,91.90
2019-05-15T03:54:22.327Z,91.40
2019-05-15T03:56:51.914Z,91.00
2019-05-15T03:59:21.537Z,91.50
2019-05-15T04:01:51.196Z,92.10
2019-05-15T04:04:20.812Z,92.30
2019-05-15T04:06:50.470Z,92.40
2019-05-15T04:09:20.383Z,92.40
2019-05-15T04:11:50.146Z,91.70
2019-05-15T04:14:19.957Z,92.30
2019-05-15T04:16:49.865Z,92.20
2019-05-15T04:19:19.661Z,91.90
2019-05-15T04:21:49.744Z,92.50
2019-05-15T04:24:20.868Z,92.30
2019-05-15T04:26:51.533Z,91.80
2019-05-15T04:29:21.119Z,91.90
2019-05-15T04:32:00.640Z,92.20
2019-05-15T04:34:22.085Z,91.70
2019-05-15T04:36:51.678Z,92.30
2019-05-15T04:39:21.395Z,92.20
2019-05-15T04:41:50.993Z,92.40
2019-05-15T04:44:20.619Z,92.20
2019-05-15T04:46:50.364Z,92.00
2019-05-15T04:49:19.983Z,92.00
2019-05-15T04:51:49.966Z,91.90
2019-05-15T04:54:20.236Z,92.00
2019-05-15T04:56:50.130Z,92.30
2019-05-15T04:59:20.053Z,92.20
2019-05-15T05:01:53.350Z,92.50
2019-05-15T05:04:21.403Z,92.50
2019-05-15T05:06:51.731Z,92.40
2019-05-15T05:09:21.961Z,92.80
2019-05-15T05:11:51.664Z,92.50
2019-05-15T05:14:21.344Z,92.40
2019-05-15T05:16:50.917Z,93.10
2019-05-15T05:19:20.548Z,92.60
2019-05-15T05:21:50.165Z,92.40
2019-05-15T05:24:19.777Z,92.50
2019-05-15T05:26:49.557Z,92.50
2019-05-15T05:29:19.418Z,92.20
2019-05-15T05:31:49.368Z,92.50
2019-05-15T05:34:19.464Z,92.70
2019-05-15T05:36:49.240Z,92.80
2019-05-15T05:39:19.944Z,92.70
2019-05-15T05:41:49.785Z,92.40
2019-05-15T05:44:19.543Z,92.40
2019-05-15T05:46:49.235Z,92.50
2019-05-15T05:49:18.823Z,92.30
2019-05-15T05:51:48.447Z,91.60
2019-05-15T05:54:18.361Z,91.50
2019-05-15T05:56:48.429Z,91.80
2019-05-15T05:59:18.559Z,91.80
2019-05-15T06:01:48.625Z,91.70
2019-05-15T06:04:18.718Z,91.50
2019-05-15T06:06:53.326Z,91.00
2019-05-15T06:09:19.835Z,91.10
2019-05-15T06:11:49.529Z,91.00
2019-05-15T06:14:19.151Z,90.90
2019-05-15T06:16:48.769Z,91.10
2019-05-15T06:19:18.412Z,91.20
2019-05-15T06:21:56.801Z,91.00
2019-05-15T06:24:19.394Z,90.50
2019-05-15T06:26:49.010Z,90.20
2019-05-15T06:29:18.646Z,90.10
2019-05-15T06:31:48.534Z,89.20
2019-05-15T06:34:18.200Z,89.80
2019-05-15T06:36:48.578Z,89.90
2019-05-15T06:39:18.369Z,90.00
2019-05-15T06:41:48.422Z,89.70
2019-05-15T06:44:18.748Z,89.20
2019-05-15T06:46:48.681Z,89.30
2019-05-15T06:49:18.288Z,89.00
2019-05-15T06:51:48.706Z,87.90
2019-05-15T06:54:19.042Z,88.10
2019-05-15T06:56:49.209Z,88.10
2019-05-15T06:59:19.100Z,87.00
2019-05-15T07:01:48.723Z,86.90
2019-05-15T07:04:18.386Z,86.70
2019-05-15T07:06:48.908Z,86.00
2019-05-15T07:09:18.713Z,87.30
2019-05-15T07:11:48.551Z,85.00
2019-05-15T07:14:18.314Z,84.80
2019-05-15T07:16:48.686Z,84.50
2019-05-15T07:19:19.171Z,82.10
2019-05-15T07:21:48.919Z,80.50
2019-05-15T07:24:18.655Z,77.90
2019-05-15T07:26:48.588Z,77.90
2019-05-15T07:29:19.015Z,79.60
2019-05-15T07:31:49.264Z,80.20
2019-05-15T07:34:18.958Z,81.30
2019-05-15T07:36:49.382Z,80.90
2019-05-15T07:39:19.091Z,78.10
2019-05-15T07:41:48.704Z,79.00
2019-05-15T07:44:18.976Z,79.70
2019-05-15T07:46:48.985Z,78.20
2019-05-15T07:49:18.760Z,76.80
2019-05-15T07:51:48.992Z,76.80
2019-05-15T07:54:18.801Z,77.00
2019-05-15T07:56:48.879Z,78.10
2019-05-15T07:59:18.843Z,78.10
2019-05-15T08:01:48.980Z,78.00
2019-05-15T08:04:28.127Z,77.00
2019-05-15T08:06:50.061Z,79.90
2019-05-15T08:09:19.691Z,79.50
2019-05-15T08:11:49.287Z,77.90
2019-05-15T08:14:19.052Z,79.40
2019-05-15T08:16:48.745Z,80.10
2019-05-15T08:19:18.567Z,79.00
2019-05-15T08:21:51.783Z,78.80
2019-05-15T08:24:19.601Z,78.40
2019-05-15T08:26:49.192Z,77.00
2019-05-15T08:29:21.547Z,76.80
2019-05-15T08:31:50.212Z,78.10
2019-05-15T08:34:19.911Z,76.90
2019-05-15T08:36:49.499Z,78.10
2019-05-15T08:39:19.194Z,78.90
2019-05-15T08:41:48.865Z,77.30
2019-05-15T08:44:20.700Z,77.10
2019-05-15T08:46:50.752Z,75.90
2019-05-15T08:49:20.812Z,76.40
2019-05-15T08:51:50.532Z,75.80
2019-05-15T08:54:20.126Z,73.50
2019-05-15T08:56:50.073Z,74.90
2019-05-15T08:59:19.699Z,72.80
2019-05-15T09:01:49.335Z,72.80
2019-05-15T09:04:27.894Z,71.90
2019-05-15T09:06:50.313Z,70.70
2019-05-15T09:09:19.909Z,69.80
2019-05-15T09:11:49.546Z,71.10
2019-05-15T09:14:19.268Z,69.60
2019-05-15T09:16:49.129Z,69.70
2019-05-15T09:19:18.772Z,68.60
2019-05-15T09:21:49.460Z,67.30
2019-05-15T09:24:19.878Z,68.40
2019-05-15T09:26:49.998Z,68.20
2019-05-15T09:29:19.706Z,65.70
2019-05-15T09:31:49.349Z,65.30
2019-05-15T09:34:18.976Z,64.70
2019-05-15T09:36:48.827Z,60.40
2019-05-15T09:39:18.555Z,61.90
2019-05-15T09:41:48.746Z,62.10
2019-05-15T09:44:21.840Z,59.90
2019-05-15T09:46:50.148Z,59.20
2019-05-15T09:49:19.772Z,59.40
2019-05-15T09:51:49.388Z,59.80
2019-05-15T09:54:19.340Z,62.00
2019-05-15T09:56:49.563Z,57.50
2019-05-15T09:59:19.282Z,57.20
2019-05-15T10:01:48.984Z,57.20
2019-05-15T10:04:19.170Z,56.60
2019-05-15T10:06:49.019Z,58.20
2019-05-15T10:09:19.150Z,55.40
2019-05-15T10:11:49.353Z,55.30
2019-05-15T10:14:19.641Z,51.00
2019-05-15T10:16:50.037Z,51.30
2019-05-15T10:19:19.761Z,48.00
2019-05-15T10:21:52.901Z,48.70
2019-05-15T10:24:20.887Z,47.70
2019-05-15T10:26:50.478Z,50.80
2019-05-15T10:29:20.107Z,49.80
2019-05-15T10:31:49.892Z,48.60
2019-05-15T10:34:19.518Z,47.50
2019-05-15T10:36:49.639Z,49.60
2019-05-15T10:39:19.453Z,49.20
2019-05-15T10:41:49.133Z,48.80
2019-05-15T10:44:18.720Z,47.10
2019-05-15T10:46:48.552Z,47.40
2019-05-15T10:49:18.899Z,47.20
2019-05-15T10:51:48.714Z,49.00
2019-05-15T10:54:19.168Z,48.50
2019-05-15T10:56:49.031Z,50.70
2019-05-15T10:59:18.625Z,48.40
2019-05-15T11:01:48.870Z,48.00
2019-05-15T11:04:18.540Z,48.10
2019-05-15T11:06:49.109Z,49.80
2019-05-15T11:09:18.819Z,50.30
2019-05-15T11:11:51.483Z,51.00
2019-05-15T11:14:19.762Z,50.90
2019-05-15T11:16:49.663Z,52.30
2019-05-15T11:19:19.324Z,52.10
2019-05-15T11:21:48.943Z,52.90
2019-05-15T11:24:19.585Z,50.70
2019-05-15T11:26:50.066Z,51.90
2019-05-15T11:29:19.773Z,51.60
2019-05-15T11:31:49.359Z,52.30
2019-05-15T11:34:18.997Z,49.30
2019-05-15T11:36:48.708Z,49.50
2019-05-15T11:39:18.437Z,50.30
2019-05-15T11:41:49.218Z,50.90
2019-05-15T11:44:19.368Z,50.50
2019-05-15T11:46:49.649Z,50.90
2019-05-15T11:49:19.531Z,49.10
2019-05-15T11:51:49.404Z,49.20
2019-05-15T11:54:20.569Z,49.60
2019-05-15T11:56:50.157Z,51.80
2019-05-15T11:59:19.778Z,52.50
2019-05-15T12:01:49.403Z,51.50
2019-05-15T12:04:27.724Z,52.50
2019-05-15T12:06:58.832Z,51.40
2019-05-15T12:09:21.739Z,51.80
2019-05-15T12:11:51.351Z,52.00
2019-05-15T12:14:20.969Z,52.00
2019-05-15T12:17:05.616Z,51.70
2019-05-15T12:19:21.917Z,51.00
2019-05-15T12:21:51.537Z,51.90
2019-05-15T12:24:21.131Z,52.00
2019-05-15T12:26:50.752Z,52.60
2019-05-15T12:29:20.380Z,51.40
2019-05-15T12:31:50.103Z,52.70
2019-05-15T12:34:19.677Z,52.20
2019-05-15T12:36:56.770Z,52.60
2019-05-15T12:39:22.276Z,53.80
2019-05-15T13:02:02.637Z,54.10
2019-05-15T13:04:32.271Z,54.40
2019-05-15T13:07:12.874Z,54.10
2019-05-15T13:09:33.181Z,54.20
2019-05-15T13:12:02.807Z,54.60
2019-05-15T13:14:32.405Z,54.00
2019-05-15T13:17:02.026Z,54.80
2019-05-15T13:19:31.619Z,53.60
2019-05-15T13:22:01.253Z,54.00
2019-05-15T13:24:30.848Z,55.00
2019-05-15T13:27:00.470Z,56.30
2019-05-15T13:29:30.069Z,53.70
2019-05-15T13:31:59.696Z,55.00
2019-05-15T13:34:30.626Z,53.40
2019-05-15T13:37:00.620Z,53.40
2019-05-15T13:39:30.221Z,53.60
2019-05-15T13:42:00.716Z,53.20
2019-05-15T13:44:30.321Z,54.30
2019-05-15T13:46:59.919Z,55.90
2019-05-15T13:49:29.547Z,54.40
2019-05-15T13:51:59.437Z,53.40
2019-05-15T13:54:29.153Z,53.20
2019-05-15T13:56:58.747Z,53.60
2019-05-15T13:59:28.748Z,54.50
2019-05-15T14:01:59.404Z,53.90
2019-05-15T14:04:30.000Z,55.20
2019-05-15T14:06:59.906Z,54.80
2019-05-15T14:09:33.777Z,54.10
2019-05-15T14:12:00.893Z,54.80
2019-05-15T14:14:30.489Z,55.60
2019-05-15T14:17:00.139Z,55.50
2019-05-15T14:19:29.737Z,56.60
2019-05-15T14:21:59.362Z,58.60
2019-05-15T14:24:28.955Z,57.60
2019-05-15T14:26:59.364Z,58.10
2019-05-15T14:29:29.304Z,57.60
2019-05-15T14:31:58.956Z,58.40
2019-05-15T14:34:29.129Z,59.00
2019-05-15T14:36:59.263Z,59.20
2019-05-15T14:39:28.924Z,59.30
2019-05-15T14:41:58.565Z,61.30
2019-05-15T14:44:28.164Z,65.70
2019-05-15T14:46:58.242Z,63.60
2019-05-15T14:49:34.420Z,65.00
2019-05-15T14:52:08.496Z,67.10
2019-05-15T14:54:30.875Z,65.20
2019-05-15T14:57:00.512Z,71.30
2019-05-15T14:59:30.104Z,66.00
2019-05-15T15:01:59.723Z,73.80
2019-05-15T15:04:29.315Z,70.50
2019-05-15T15:06:58.943Z,73.10
2019-05-15T15:09:28.538Z,73.50
2019-05-15T15:11:58.203Z,74.40
2019-05-15T15:14:28.512Z,76.30
2019-05-15T15:16:58.433Z,75.90
2019-05-15T15:19:29.291Z,77.50
2019-05-15T15:21:59.034Z,76.70
2019-05-15T15:24:28.723Z,79.30
2019-05-15T15:26:58.790Z,79.90
2019-05-15T15:29:28.623Z,83.20
2019-05-15T15:31:58.987Z,83.70
2019-05-15T15:34:28.626Z,85.60
2019-05-15T15:36:58.260Z,87.20
2019-05-15T15:39:28.170Z,87.70
2019-05-15T15:41:57.949Z,88.40
2019-05-15T15:44:28.015Z,88.60
2019-05-15T15:46:59.141Z,88.60
2019-05-15T15:49:29.162Z,89.70
2019-05-15T15:51:58.775Z,90.10
2019-05-15T15:54:28.397Z,90.20
2019-05-15T15:56:57.989Z,90.10
2019-05-15T15:59:28.907Z,90.70
2019-05-15T16:01:59.877Z,90.00
2019-05-15T16:04:29.642Z,91.60
2019-05-15T16:06:59.267Z,91.30
2019-05-15T16:09:28.856Z,91.40
2019-05-15T16:11:58.484Z,90.40
2019-05-15T16:14:28.627Z,90.70
2019-05-15T16:16:58.413Z,90.60
2019-05-15T16:19:28.477Z,90.70
2019-05-15T16:21:59.509Z,90.40
2019-05-15T16:24:29.422Z,90.40
2019-05-15T16:27:00.982Z,90.60
2019-05-15T16:29:30.352Z,90.80
2019-05-15T16:32:00.043Z,90.80
2019-05-15T16:34:29.638Z,91.20
2019-05-15T16:36:59.274Z,90.80
2019-05-15T16:39:28.864Z,90.70
2019-05-15T16:41:59.476Z,90.80
2019-05-15T16:44:29.187Z,91.60
2019-05-15T16:46:58.945Z,91.30
2019-05-15T16:49:28.618Z,90.60
2019-05-15T16:51:58.411Z,91.80
2019-05-15T16:54:28.932Z,91.60
2019-05-15T16:56:59.452Z,91.80
2019-05-15T16:59:35.573Z,92.70
2019-05-15T17:02:00.618Z,93.00
2019-05-15T17:04:30.219Z,93.40
2019-05-15T17:06:59.841Z,93.70
2019-05-15T17:09:29.439Z,93.90
2019-05-15T17:11:59.063Z,92.70
2019-05-15T17:14:28.920Z,93.30
2019-05-15T17:16:58.794Z,93.90
2019-05-15T17:19:29.349Z,94.20
2019-05-15T17:21:59.128Z,94.40
2019-05-15T17:24:28.771Z,94.40
2019-05-15T17:26:59.569Z,94.70
2019-05-15T17:29:29.511Z,94.70
2019-05-15T17:31:59.128Z,94.80
2019-05-15T17:34:28.878Z,94.80
2019-05-15T17:36:58.487Z,94.30
2019-05-15T17:39:36.769Z,94.80
2019-05-15T17:41:59.568Z,94.70
2019-05-15T17:44:29.167Z,94.90
2019-05-15T17:46:58.864Z,95.10
2019-05-15T17:49:28.459Z,94.80
2019-05-15T17:51:58.255Z,94.70
2019-05-15T17:54:28.755Z,94.90
2019-05-15T17:56:58.694Z,94.70
2019-05-15T17:59:28.782Z,94.80
2019-05-15T18:01:59.560Z,94.90
2019-05-15T18:04:29.399Z,94.80
2019-05-15T18:06:59.243Z,95.20
2019-05-15T18:09:28.908Z,95.40
2019-05-15T18:11:58.777Z,95.10
2019-05-15T18:14:28.531Z,95.20
2019-05-15T18:16:58.700Z,95.50
2019-05-15T18:19:28.439Z,95.60
2019-05-15T18:21:59.214Z,95.50
2019-05-15T18:24:29.144Z,95.20
2019-05-15T18:26:58.745Z,95.20
2019-05-15T18:29:28.546Z,95.30
2019-05-15T18:31:58.176Z,95.70
2019-05-15T18:34:28.720Z,95.60
2019-05-15T18:36:58.452Z,95.30
2019-05-15T18:39:28.431Z,94.80
2019-05-15T18:41:58.220Z,94.50
2019-05-15T18:44:28.416Z,94.80
2019-05-15T18:46:58.284Z,94.30
2019-05-15T18:49:28.531Z,95.00
2019-05-15T18:51:58.343Z,95.30
2019-05-15T18:54:28.128Z,95.00
2019-05-15T18:56:58.445Z,95.10
2019-05-15T18:59:28.367Z,94.50
2019-05-15T19:01:58.608Z,95.00
2019-05-15T19:04:28.881Z,95.50
2019-05-15T19:06:58.571Z,95.80
2019-05-15T19:09:28.285Z,95.70
2019-05-15T19:11:58.214Z,95.80
2019-05-15T19:14:28.084Z,95.50
2019-05-15T19:16:59.088Z,95.30
2019-05-15T19:19:28.873Z,95.00
2019-05-15T19:21:58.470Z,95.10
2019-05-15T19:24:28.096Z,95.40
2019-05-15T19:26:58.682Z,95.30
2019-05-15T19:29:28.565Z,95.30
2019-05-15T19:31:58.331Z,95.30
2019-05-15T19:34:28.210Z,95.40
2019-05-15T19:36:58.263Z,95.60
2019-05-15T19:39:28.088Z,95.60
2019-05-15T19:41:58.333Z,95.50
2019-05-15T19:44:28.490Z,95.60
2019-05-15T19:46:58.636Z,95.90
2019-05-15T19:49:28.315Z,95.70
2019-05-15T19:51:58.185Z,95.50
2019-05-15T19:54:28.887Z,95.60
2019-05-15T19:56:58.719Z,95.30
2019-05-15T19:59:29.435Z,95.20
2019-05-15T20:01:59.280Z,95.50
2019-05-15T20:04:29.071Z,95.80
2019-05-15T20:06:58.727Z,95.80
2019-05-15T20:09:28.345Z,96.00
2019-05-15T20:11:58.519Z,95.50
2019-05-15T20:14:28.805Z,95.70
2019-05-15T20:16:59.071Z,95.50
2019-05-15T20:19:28.867Z,95.70
2019-05-15T20:21:58.609Z,95.50
2019-05-15T20:24:28.782Z,95.30
2019-05-15T20:26:58.498Z,95.40
2019-05-15T20:29:28.941Z,95.50
2019-05-15T20:31:58.804Z,95.30
2019-05-15T20:34:28.805Z,95.20
2019-05-15T20:36:58.884Z,95.30
2019-05-15T20:39:28.564Z,95.50
2019-05-15T20:41:58.403Z,95.30
2019-05-15T20:44:28.050Z,95.80
2019-05-15T20:46:58.996Z,95.50
2019-05-15T20:49:28.860Z,95.80
2019-05-15T20:51:58.516Z,95.30
2019-05-15T20:54:28.522Z,95.70
2019-05-15T20:56:58.442Z,95.80
2019-05-15T20:59:28.093Z,96.00
2019-05-15T21:01:59.384Z,96.00
2019-05-15T21:04:29.085Z,95.90
2019-05-15T21:06:58.700Z,96.00
2019-05-15T21:09:30.496Z,96.00
2019-05-15T21:11:59.680Z,95.90
2019-05-15T21:14:29.289Z,96.10
2019-05-15T21:16:59.179Z,96.00
2019-05-15T21:19:28.752Z,96.10
2019-05-15T21:21:58.596Z,95.80
2019-05-15T21:24:28.418Z,95.80
2019-05-15T21:26:58.227Z,96.00
2019-05-15T21:29:27.863Z,96.40
2019-05-15T21:31:58.044Z,96.10
2019-05-15T21:34:36.881Z,96.00
2019-05-15T21:36:59.485Z,96.20
2019-05-15T21:39:30.240Z,96.20
2019-05-15T21:41:59.975Z,96.40
2019-05-15T21:44:29.559Z,96.10
2019-05-15T21:46:59.172Z,95.90
2019-05-15T21:49:28.830Z,95.20
2019-05-15T21:51:58.542Z,95.20
2019-05-15T21:54:28.337Z,95.30
2019-05-15T21:57:07.555Z,96.00
2019-05-15T21:59:29.292Z,95.60
2019-05-15T22:01:59.111Z,95.70
2019-05-15T22:04:30.523Z,95.20
2019-05-15T22:07:00.316Z,95.50
2019-05-15T22:09:30.343Z,95.30
2019-05-15T22:12:01.423Z,95.10
2019-05-15T22:14:31.164Z,95.40
2019-05-15T22:17:00.792Z,95.50
2019-05-15T22:19:30.421Z,95.60
2019-05-15T22:22:00.092Z,96.00
2019-05-15T22:24:29.994Z,96.10
2019-05-15T22:26:59.732Z,95.90
2019-05-15T22:29:29.342Z,95.80
2019-05-15T22:31:59.142Z,96.10
2019-05-15T22:34:28.995Z,96.30
2019-05-15T22:36:58.623Z,96.50
2019-05-15T22:39:28.243Z,96.90
2019-05-15T22:41:58.110Z,95.80
2019-05-15T22:44:28.173Z,95.50
2019-05-15T22:46:58.232Z,96.00
2019-05-15T22:49:28.846Z,95.90
2019-05-15T22:51:58.581Z,96.00
2019-05-15T22:54:28.194Z,96.20
2019-05-15T22:56:58.042Z,96.20
2019-05-15T22:59:28.355Z,96.30
2019-05-15T23:01:58.276Z,95.80
2019-05-15T23:04:28.714Z,95.80
2019-05-15T23:06:58.384Z,95.70
2019-05-15T23:09:28.438Z,95.60
2019-05-15T23:11:58.855Z,95.60
2019-05-15T23:14:28.789Z,96.10
2019-05-15T23:16:59.031Z,96.30
2019-05-15T23:19:28.763Z,96.20
2019-05-15T23:21:59.095Z,96.30
2019-05-15T23:24:28.751Z,96.40
2019-05-15T23:26:58.432Z,96.40
2019-05-15T23:29:28.040Z,96.50
2019-05-15T23:31:58.393Z,96.40
2019-05-15T23:34:28.138Z,96.60
2019-05-15T23:36:57.889Z,96.50
2019-05-15T23:39:27.487Z,96.90
2019-05-15T23:41:58.494Z,96.70
2019-05-15T23:44:28.164Z,96.40
2019-05-15T23:46:57.794Z,96.30
2019-05-15T23:49:27.887Z,96.30
2019-05-15T23:51:58.244Z,96.30
2019-05-15T23:54:28.012Z,95.60
2019-05-15T23:56:58.367Z,95.40
2019-05-15T23:59:28.266Z,95.40
